sensor_id;sensor_type;location;lat;lon;timestamp;P1;durP1;ratioP1;P2;durP2;ratioP2
12838;SDS011;6486;51.034;5.262;2022-12-26T00:00:45;2.77;;;1.27;;
12838;SDS011;6486;51.034;5.262;2022-12-26T00:03:11;1.23;;;1.00;;
12838;SDS011;6486;51.034;5.262;2022-12-26T00:05:37;1.00;;;0.90;;
12838;SDS011;6486;51.034;5.262;2022-12-26T00:08:02;1.60;;;1.07;;
12838;SDS011;6486;51.034;5.262;2022-12-26T00:10:28;1.27;;;1.10;;
12838;SDS011;6486;51.034;5.262;2022-12-26T00:12:54;1.10;;;1.00;;
12838;SDS011;6486;51.034;5.262;2022-12-26T00:15:19;2.23;;;1.30;;
12838;SDS011;6486;51.034;5.262;2022-12-26T00:17:45;1.20;;;0.80;;
12838;SDS011;6486;51.034;5.262;2022-12-26T00:20:11;3.90;;;1.60;;
12838;SDS011;6486;51.034;5.262;2022-12-26T00:22:36;1.70;;;1.50;;
12838;SDS011;6486;51.034;5.262;2022-12-26T00:25:02;1.63;;;1.20;;
12838;SDS011;6486;51.034;5.262;2022-12-26T00:27:28;3.90;;;0.80;;
12838;SDS011;6486;51.034;5.262;2022-12-26T00:29:53;6.00;;;0.90;;
12838;SDS011;6486;51.034;5.262;2022-12-26T00:32:19;2.17;;;1.10;;
12838;SDS011;6486;51.034;5.262;2022-12-26T00:34:45;2.23;;;1.90;;
12838;SDS011;6486;51.034;5.262;2022-12-26T00:37:10;1.30;;;1.03;;
12838;SDS011;6486;51.034;5.262;2022-12-26T00:39:36;0.97;;;0.90;;
12838;SDS011;6486;51.034;5.262;2022-12-26T00:42:01;1.97;;;0.97;;
12838;SDS011;6486;51.034;5.262;2022-12-26T00:44:27;16.27;;;2.13;;
12838;SDS011;6486;51.034;5.262;2022-12-26T00:46:53;1.70;;;1.13;;
12838;SDS011;6486;51.034;5.262;2022-12-26T00:49:19;1.80;;;1.30;;
12838;SDS011;6486;51.034;5.262;2022-12-26T00:51:44;1.83;;;1.13;;
12838;SDS011;6486;51.034;5.262;2022-12-26T00:54:10;4.50;;;1.70;;
12838;SDS011;6486;51.034;5.262;2022-12-26T00:56:35;1.53;;;1.10;;
12838;SDS011;6486;51.034;5.262;2022-12-26T00:59:01;1.53;;;1.10;;
12838;SDS011;6486;51.034;5.262;2022-12-26T01:01:27;3.80;;;2.03;;
12838;SDS011;6486;51.034;5.262;2022-12-26T01:03:55;3.30;;;1.67;;
12838;SDS011;6486;51.034;5.262;2022-12-26T01:06:21;2.07;;;1.60;;
12838;SDS011;6486;51.034;5.262;2022-12-26T01:08:47;4.57;;;1.63;;
12838;SDS011;6486;51.034;5.262;2022-12-26T01:11:13;1.63;;;1.20;;
12838;SDS011;6486;51.034;5.262;2022-12-26T01:13:40;2.53;;;1.90;;
12838;SDS011;6486;51.034;5.262;2022-12-26T01:16:07;7.50;;;2.73;;
12838;SDS011;6486;51.034;5.262;2022-12-26T01:18:33;3.93;;;2.33;;
12838;SDS011;6486;51.034;5.262;2022-12-26T01:20:59;1.10;;;1.00;;
12838;SDS011;6486;51.034;5.262;2022-12-26T01:23:27;2.07;;;1.70;;
12838;SDS011;6486;51.034;5.262;2022-12-26T01:25:53;3.73;;;1.47;;
12838;SDS011;6486;51.034;5.262;2022-12-26T01:28:18;2.60;;;1.87;;
12838;SDS011;6486;51.034;5.262;2022-12-26T01:30:44;2.43;;;1.30;;
12838;SDS011;6486;51.034;5.262;2022-12-26T01:33:10;1.40;;;1.27;;
12838;SDS011;6486;51.034;5.262;2022-12-26T01:35:35;1.03;;;1.00;;
12838;SDS011;6486;51.034;5.262;2022-12-26T01:38:01;6.30;;;2.33;;
12838;SDS011;6486;51.034;5.262;2022-12-26T01:40:27;2.40;;;1.60;;
12838;SDS011;6486;51.034;5.262;2022-12-26T01:42:52;2.57;;;1.90;;
12838;SDS011;6486;51.034;5.262;2022-12-26T01:45:36;2.90;;;1.80;;
12838;SDS011;6486;51.034;5.262;2022-12-26T01:50:45;2.27;;;1.80;;
12838;SDS011;6486;51.034;5.262;2022-12-26T01:53:22;4.37;;;2.00;;
12838;SDS011;6486;51.034;5.262;2022-12-26T01:55:59;3.20;;;1.80;;
12838;SDS011;6486;51.034;5.262;2022-12-26T01:58:29;2.50;;;2.17;;
12838;SDS011;6486;51.034;5.262;2022-12-26T02:00:58;2.87;;;1.70;;
12838;SDS011;6486;51.034;5.262;2022-12-26T02:03:25;2.13;;;1.70;;
12838;SDS011;6486;51.034;5.262;2022-12-26T02:06:09;2.77;;;1.73;;
12838;SDS011;6486;51.034;5.262;2022-12-26T02:08:37;3.13;;;2.03;;
12838;SDS011;6486;51.034;5.262;2022-12-26T02:13:57;1.73;;;1.63;;
12838;SDS011;6486;51.034;5.262;2022-12-26T02:16:24;4.03;;;2.07;;
12838;SDS011;6486;51.034;5.262;2022-12-26T02:18:50;1.90;;;1.57;;
12838;SDS011;6486;51.034;5.262;2022-12-26T02:21:54;3.40;;;2.13;;
12838;SDS011;6486;51.034;5.262;2022-12-26T02:24:30;2.77;;;2.10;;
12838;SDS011;6486;51.034;5.262;2022-12-26T02:29:56;3.80;;;1.77;;
12838;SDS011;6486;51.034;5.262;2022-12-26T02:40:26;1.70;;;1.60;;
12838;SDS011;6486;51.034;5.262;2022-12-26T02:51:20;4.03;;;2.70;;
12838;SDS011;6486;51.034;5.262;2022-12-26T02:54:24;4.37;;;1.80;;
12838;SDS011;6486;51.034;5.262;2022-12-26T02:57:16;2.53;;;1.90;;
12838;SDS011;6486;51.034;5.262;2022-12-26T03:00:07;3.70;;;2.70;;
12838;SDS011;6486;51.034;5.262;2022-12-26T03:03:00;3.77;;;2.07;;
12838;SDS011;6486;51.034;5.262;2022-12-26T03:08:40;3.73;;;1.70;;
12838;SDS011;6486;51.034;5.262;2022-12-26T03:11:30;3.97;;;2.03;;
12838;SDS011;6486;51.034;5.262;2022-12-26T03:14:22;2.03;;;1.43;;
12838;SDS011;6486;51.034;5.262;2022-12-26T03:17:12;2.97;;;2.23;;
12838;SDS011;6486;51.034;5.262;2022-12-26T03:19:48;2.17;;;1.93;;
12838;SDS011;6486;51.034;5.262;2022-12-26T03:22:27;2.33;;;1.67;;
12838;SDS011;6486;51.034;5.262;2022-12-26T03:25:04;2.17;;;1.60;;
12838;SDS011;6486;51.034;5.262;2022-12-26T03:27:52;2.17;;;1.83;;
12838;SDS011;6486;51.034;5.262;2022-12-26T03:30:18;2.27;;;2.00;;
12838;SDS011;6486;51.034;5.262;2022-12-26T03:33:02;2.10;;;1.47;;
12838;SDS011;6486;51.034;5.262;2022-12-26T03:35:29;2.07;;;1.57;;
12838;SDS011;6486;51.034;5.262;2022-12-26T03:40:45;1.37;;;1.20;;
12838;SDS011;6486;51.034;5.262;2022-12-26T03:46:53;3.83;;;1.60;;
12838;SDS011;6486;51.034;5.262;2022-12-26T03:49:41;3.47;;;1.43;;
12838;SDS011;6486;51.034;5.262;2022-12-26T03:58:14;0.93;;;0.93;;
12838;SDS011;6486;51.034;5.262;2022-12-26T04:01:14;1.83;;;0.80;;
12838;SDS011;6486;51.034;5.262;2022-12-26T04:04:06;1.33;;;1.17;;
12838;SDS011;6486;51.034;5.262;2022-12-26T04:06:59;1.70;;;1.10;;
12838;SDS011;6486;51.034;5.262;2022-12-26T04:09:56;1.17;;;0.93;;
12838;SDS011;6486;51.034;5.262;2022-12-26T04:12:53;0.70;;;0.60;;
12838;SDS011;6486;51.034;5.262;2022-12-26T04:15:47;2.93;;;1.10;;
12838;SDS011;6486;51.034;5.262;2022-12-26T04:21:37;0.90;;;0.83;;
12838;SDS011;6486;51.034;5.262;2022-12-26T04:24:28;0.83;;;0.83;;
12838;SDS011;6486;51.034;5.262;2022-12-26T04:27:15;6.70;;;0.93;;
12838;SDS011;6486;51.034;5.262;2022-12-26T04:30:02;0.80;;;0.60;;
12838;SDS011;6486;51.034;5.262;2022-12-26T04:32:48;1.40;;;0.80;;
12838;SDS011;6486;51.034;5.262;2022-12-26T04:35:36;1.73;;;0.90;;
12838;SDS011;6486;51.034;5.262;2022-12-26T04:38:30;1.30;;;1.20;;
12838;SDS011;6486;51.034;5.262;2022-12-26T04:41:23;1.00;;;0.70;;
12838;SDS011;6486;51.034;5.262;2022-12-26T04:44:10;2.07;;;0.97;;
12838;SDS011;6486;51.034;5.262;2022-12-26T04:46:39;2.53;;;1.30;;
12838;SDS011;6486;51.034;5.262;2022-12-26T04:49:08;2.33;;;1.27;;
12838;SDS011;6486;51.034;5.262;2022-12-26T04:52:04;1.30;;;0.70;;
12838;SDS011;6486;51.034;5.262;2022-12-26T04:54:32;1.33;;;1.00;;
12838;SDS011;6486;51.034;5.262;2022-12-26T04:56:58;1.43;;;1.10;;
12838;SDS011;6486;51.034;5.262;2022-12-26T04:59:24;1.93;;;0.83;;
12838;SDS011;6486;51.034;5.262;2022-12-26T05:01:51;1.27;;;1.17;;
12838;SDS011;6486;51.034;5.262;2022-12-26T05:04:35;1.40;;;1.17;;
12838;SDS011;6486;51.034;5.262;2022-12-26T05:07:20;2.10;;;1.50;;
12838;SDS011;6486;51.034;5.262;2022-12-26T05:10:16;6.83;;;1.70;;
12838;SDS011;6486;51.034;5.262;2022-12-26T05:12:43;1.30;;;1.17;;
12838;SDS011;6486;51.034;5.262;2022-12-26T05:15:09;2.97;;;1.87;;
12838;SDS011;6486;51.034;5.262;2022-12-26T05:17:35;1.20;;;1.20;;
12838;SDS011;6486;51.034;5.262;2022-12-26T05:20:19;2.17;;;1.10;;
12838;SDS011;6486;51.034;5.262;2022-12-26T05:23:03;1.50;;;1.40;;
12838;SDS011;6486;51.034;5.262;2022-12-26T05:25:54;1.53;;;1.30;;
12838;SDS011;6486;51.034;5.262;2022-12-26T05:28:38;4.60;;;1.80;;
12838;SDS011;6486;51.034;5.262;2022-12-26T05:31:10;9.63;;;1.83;;
12838;SDS011;6486;51.034;5.262;2022-12-26T05:33:41;2.03;;;0.83;;
12838;SDS011;6486;51.034;5.262;2022-12-26T05:36:36;6.50;;;1.33;;
12838;SDS011;6486;51.034;5.262;2022-12-26T05:39:07;1.67;;;1.10;;
12838;SDS011;6486;51.034;5.262;2022-12-26T05:41:34;1.67;;;1.50;;
12838;SDS011;6486;51.034;5.262;2022-12-26T05:44:00;1.50;;;1.17;;
12838;SDS011;6486;51.034;5.262;2022-12-26T05:46:26;2.30;;;1.17;;
12838;SDS011;6486;51.034;5.262;2022-12-26T05:48:52;1.77;;;1.67;;
12838;SDS011;6486;51.034;5.262;2022-12-26T05:51:17;3.00;;;1.43;;
12838;SDS011;6486;51.034;5.262;2022-12-26T05:53:43;1.33;;;0.77;;
12838;SDS011;6486;51.034;5.262;2022-12-26T05:56:10;1.10;;;1.00;;
12838;SDS011;6486;51.034;5.262;2022-12-26T05:58:37;1.90;;;1.07;;
12838;SDS011;6486;51.034;5.262;2022-12-26T06:01:05;1.37;;;1.27;;
12838;SDS011;6486;51.034;5.262;2022-12-26T06:03:41;1.07;;;0.63;;
12838;SDS011;6486;51.034;5.262;2022-12-26T06:06:11;1.20;;;0.70;;
12838;SDS011;6486;51.034;5.262;2022-12-26T06:08:38;0.60;;;0.53;;
12838;SDS011;6486;51.034;5.262;2022-12-26T06:11:04;1.20;;;1.03;;
12838;SDS011;6486;51.034;5.262;2022-12-26T06:13:31;2.10;;;1.07;;
12838;SDS011;6486;51.034;5.262;2022-12-26T06:15:57;3.60;;;1.27;;
12838;SDS011;6486;51.034;5.262;2022-12-26T06:18:23;4.13;;;0.80;;
12838;SDS011;6486;51.034;5.262;2022-12-26T06:20:49;0.97;;;0.73;;
12838;SDS011;6486;51.034;5.262;2022-12-26T06:23:15;0.40;;;0.37;;
12838;SDS011;6486;51.034;5.262;2022-12-26T06:25:41;2.23;;;1.13;;
12838;SDS011;6486;51.034;5.262;2022-12-26T06:28:06;0.97;;;0.87;;
12838;SDS011;6486;51.034;5.262;2022-12-26T06:30:32;1.07;;;0.93;;
12838;SDS011;6486;51.034;5.262;2022-12-26T06:32:58;1.90;;;1.07;;
12838;SDS011;6486;51.034;5.262;2022-12-26T06:35:23;2.63;;;0.90;;
12838;SDS011;6486;51.034;5.262;2022-12-26T06:37:49;0.50;;;0.50;;
12838;SDS011;6486;51.034;5.262;2022-12-26T06:40:15;2.27;;;1.03;;
12838;SDS011;6486;51.034;5.262;2022-12-26T06:42:40;2.00;;;0.83;;
12838;SDS011;6486;51.034;5.262;2022-12-26T06:45:06;0.40;;;0.40;;
12838;SDS011;6486;51.034;5.262;2022-12-26T06:47:32;0.77;;;0.40;;
12838;SDS011;6486;51.034;5.262;2022-12-26T06:49:58;0.57;;;0.57;;
12838;SDS011;6486;51.034;5.262;2022-12-26T06:52:23;1.13;;;1.00;;
12838;SDS011;6486;51.034;5.262;2022-12-26T06:54:49;0.43;;;0.40;;
12838;SDS011;6486;51.034;5.262;2022-12-26T06:57:14;1.70;;;0.60;;
12838;SDS011;6486;51.034;5.262;2022-12-26T06:59:40;1.37;;;1.07;;
12838;SDS011;6486;51.034;5.262;2022-12-26T07:02:07;1.73;;;0.70;;
12838;SDS011;6486;51.034;5.262;2022-12-26T07:04:34;1.17;;;1.07;;
12838;SDS011;6486;51.034;5.262;2022-12-26T07:07:00;6.30;;;0.77;;
12838;SDS011;6486;51.034;5.262;2022-12-26T07:09:25;0.80;;;0.50;;
12838;SDS011;6486;51.034;5.262;2022-12-26T07:11:51;2.00;;;0.43;;
12838;SDS011;6486;51.034;5.262;2022-12-26T07:14:17;0.30;;;0.30;;
12838;SDS011;6486;51.034;5.262;2022-12-26T07:16:43;0.80;;;0.50;;
12838;SDS011;6486;51.034;5.262;2022-12-26T07:19:10;0.37;;;0.37;;
12838;SDS011;6486;51.034;5.262;2022-12-26T07:21:37;0.40;;;0.40;;
12838;SDS011;6486;51.034;5.262;2022-12-26T07:24:02;0.87;;;0.73;;
12838;SDS011;6486;51.034;5.262;2022-12-26T07:26:28;0.63;;;0.47;;
12838;SDS011;6486;51.034;5.262;2022-12-26T07:28:55;0.83;;;0.70;;
12838;SDS011;6486;51.034;5.262;2022-12-26T07:31:22;0.43;;;0.40;;
12838;SDS011;6486;51.034;5.262;2022-12-26T07:33:48;1.17;;;0.93;;
12838;SDS011;6486;51.034;5.262;2022-12-26T07:36:15;3.20;;;0.90;;
12838;SDS011;6486;51.034;5.262;2022-12-26T07:38:42;0.70;;;0.70;;
12838;SDS011;6486;51.034;5.262;2022-12-26T07:41:07;0.40;;;0.33;;
12838;SDS011;6486;51.034;5.262;2022-12-26T07:43:53;0.53;;;0.43;;
12838;SDS011;6486;51.034;5.262;2022-12-26T07:46:19;1.03;;;0.70;;
12838;SDS011;6486;51.034;5.262;2022-12-26T07:48:45;1.97;;;0.50;;
12838;SDS011;6486;51.034;5.262;2022-12-26T07:51:11;0.60;;;0.40;;
12838;SDS011;6486;51.034;5.262;2022-12-26T07:53:37;0.43;;;0.20;;
12838;SDS011;6486;51.034;5.262;2022-12-26T07:56:03;0.77;;;0.50;;
12838;SDS011;6486;51.034;5.262;2022-12-26T07:58:29;0.77;;;0.50;;
12838;SDS011;6486;51.034;5.262;2022-12-26T08:00:54;0.37;;;0.20;;
12838;SDS011;6486;51.034;5.262;2022-12-26T08:03:20;0.43;;;0.40;;
12838;SDS011;6486;51.034;5.262;2022-12-26T08:05:49;0.50;;;0.50;;
12838;SDS011;6486;51.034;5.262;2022-12-26T08:08:15;0.83;;;0.40;;
12838;SDS011;6486;51.034;5.262;2022-12-26T08:10:41;0.63;;;0.50;;
12838;SDS011;6486;51.034;5.262;2022-12-26T08:13:07;1.33;;;0.63;;
12838;SDS011;6486;51.034;5.262;2022-12-26T08:15:32;0.30;;;0.30;;
12838;SDS011;6486;51.034;5.262;2022-12-26T08:17:58;0.40;;;0.40;;
12838;SDS011;6486;51.034;5.262;2022-12-26T08:20:24;0.20;;;0.20;;
12838;SDS011;6486;51.034;5.262;2022-12-26T08:22:50;0.73;;;0.40;;
12838;SDS011;6486;51.034;5.262;2022-12-26T08:25:15;0.40;;;0.40;;
12838;SDS011;6486;51.034;5.262;2022-12-26T08:27:41;6.63;;;0.33;;
12838;SDS011;6486;51.034;5.262;2022-12-26T08:30:07;0.20;;;0.20;;
12838;SDS011;6486;51.034;5.262;2022-12-26T08:32:33;0.53;;;0.50;;
12838;SDS011;6486;51.034;5.262;2022-12-26T08:34:59;0.70;;;0.70;;
12838;SDS011;6486;51.034;5.262;2022-12-26T08:37:25;0.23;;;0.23;;
12838;SDS011;6486;51.034;5.262;2022-12-26T08:39:51;0.50;;;0.50;;
12838;SDS011;6486;51.034;5.262;2022-12-26T08:42:18;0.77;;;0.30;;
12838;SDS011;6486;51.034;5.262;2022-12-26T08:44:44;1.20;;;1.00;;
12838;SDS011;6486;51.034;5.262;2022-12-26T08:47:10;0.83;;;0.43;;
12838;SDS011;6486;51.034;5.262;2022-12-26T08:49:36;2.70;;;0.57;;
12838;SDS011;6486;51.034;5.262;2022-12-26T08:52:01;0.63;;;0.63;;
12838;SDS011;6486;51.034;5.262;2022-12-26T08:54:27;0.67;;;0.63;;
12838;SDS011;6486;51.034;5.262;2022-12-26T08:56:54;0.30;;;0.30;;
12838;SDS011;6486;51.034;5.262;2022-12-26T08:59:19;0.50;;;0.43;;
12838;SDS011;6486;51.034;5.262;2022-12-26T09:01:46;0.83;;;0.70;;
12838;SDS011;6486;51.034;5.262;2022-12-26T09:04:11;0.33;;;0.33;;
12838;SDS011;6486;51.034;5.262;2022-12-26T09:06:37;2.83;;;0.70;;
12838;SDS011;6486;51.034;5.262;2022-12-26T09:09:04;0.40;;;0.40;;
12838;SDS011;6486;51.034;5.262;2022-12-26T09:11:31;1.03;;;0.40;;
12838;SDS011;6486;51.034;5.262;2022-12-26T09:13:58;0.50;;;0.40;;
12838;SDS011;6486;51.034;5.262;2022-12-26T09:16:26;1.07;;;0.60;;
12838;SDS011;6486;51.034;5.262;2022-12-26T09:18:55;1.50;;;0.73;;
12838;SDS011;6486;51.034;5.262;2022-12-26T09:21:23;2.03;;;0.40;;
12838;SDS011;6486;51.034;5.262;2022-12-26T09:23:49;4.20;;;0.43;;
12838;SDS011;6486;51.034;5.262;2022-12-26T09:26:20;3.30;;;0.10;;
12838;SDS011;6486;51.034;5.262;2022-12-26T09:28:45;5.43;;;0.50;;
12838;SDS011;6486;51.034;5.262;2022-12-26T09:31:12;0.40;;;0.40;;
12838;SDS011;6486;51.034;5.262;2022-12-26T09:33:40;0.40;;;0.40;;
12838;SDS011;6486;51.034;5.262;2022-12-26T09:36:06;0.43;;;0.40;;
12838;SDS011;6486;51.034;5.262;2022-12-26T09:38:34;0.13;;;0.13;;
12838;SDS011;6486;51.034;5.262;2022-12-26T09:46:18;4.30;;;0.77;;
12838;SDS011;6486;51.034;5.262;2022-12-26T09:49:21;0.60;;;0.60;;
12838;SDS011;6486;51.034;5.262;2022-12-26T09:51:52;1.27;;;0.77;;
12838;SDS011;6486;51.034;5.262;2022-12-26T09:54:59;1.37;;;0.53;;
12838;SDS011;6486;51.034;5.262;2022-12-26T09:57:42;0.30;;;0.30;;
12838;SDS011;6486;51.034;5.262;2022-12-26T10:00:22;0.83;;;0.73;;
12838;SDS011;6486;51.034;5.262;2022-12-26T10:02:53;1.70;;;0.70;;
12838;SDS011;6486;51.034;5.262;2022-12-26T10:05:21;0.53;;;0.50;;
12838;SDS011;6486;51.034;5.262;2022-12-26T10:08:00;0.40;;;0.40;;
12838;SDS011;6486;51.034;5.262;2022-12-26T10:10:44;0.37;;;0.37;;
12838;SDS011;6486;51.034;5.262;2022-12-26T10:13:36;0.40;;;0.40;;
12838;SDS011;6486;51.034;5.262;2022-12-26T10:16:20;1.63;;;0.60;;
12838;SDS011;6486;51.034;5.262;2022-12-26T10:22:15;0.27;;;0.27;;
12838;SDS011;6486;51.034;5.262;2022-12-26T10:24:53;1.00;;;0.60;;
12838;SDS011;6486;51.034;5.262;2022-12-26T10:27:21;0.50;;;0.30;;
12838;SDS011;6486;51.034;5.262;2022-12-26T10:29:51;0.43;;;0.40;;
12838;SDS011;6486;51.034;5.262;2022-12-26T10:35:54;4.93;;;0.97;;
12838;SDS011;6486;51.034;5.262;2022-12-26T10:38:19;6.00;;;0.83;;
12838;SDS011;6486;51.034;5.262;2022-12-26T10:40:50;0.33;;;0.20;;
12838;SDS011;6486;51.034;5.262;2022-12-26T10:43:29;1.13;;;0.50;;
12838;SDS011;6486;51.034;5.262;2022-12-26T10:48:41;0.40;;;0.40;;
12838;SDS011;6486;51.034;5.262;2022-12-26T10:51:08;1.13;;;0.90;;
12838;SDS011;6486;51.034;5.262;2022-12-26T10:53:34;0.30;;;0.30;;
12838;SDS011;6486;51.034;5.262;2022-12-26T10:56:04;4.73;;;0.23;;
12838;SDS011;6486;51.034;5.262;2022-12-26T10:58:31;0.90;;;0.80;;
12838;SDS011;6486;51.034;5.262;2022-12-26T11:03:55;4.00;;;0.50;;
12838;SDS011;6486;51.034;5.262;2022-12-26T11:06:38;0.70;;;0.53;;
12838;SDS011;6486;51.034;5.262;2022-12-26T11:09:06;1.30;;;0.70;;
12838;SDS011;6486;51.034;5.262;2022-12-26T11:11:32;0.40;;;0.40;;
12838;SDS011;6486;51.034;5.262;2022-12-26T11:16:54;4.20;;;0.80;;
12838;SDS011;6486;51.034;5.262;2022-12-26T11:20:09;0.87;;;0.80;;
12838;SDS011;6486;51.034;5.262;2022-12-26T11:22:32;0.53;;;0.53;;
12838;SDS011;6486;51.034;5.262;2022-12-26T11:27:49;0.50;;;0.50;;
12838;SDS011;6486;51.034;5.262;2022-12-26T11:35:47;1.33;;;1.23;;
12838;SDS011;6486;51.034;5.262;2022-12-26T11:38:18;1.13;;;0.70;;
12838;SDS011;6486;51.034;5.262;2022-12-26T11:41:01;0.73;;;0.50;;
12838;SDS011;6486;51.034;5.262;2022-12-26T11:43:48;0.40;;;0.33;;
12838;SDS011;6486;51.034;5.262;2022-12-26T11:46:15;0.67;;;0.53;;
12838;SDS011;6486;51.034;5.262;2022-12-26T11:48:45;0.57;;;0.30;;
12838;SDS011;6486;51.034;5.262;2022-12-26T11:51:13;0.20;;;0.20;;
12838;SDS011;6486;51.034;5.262;2022-12-26T11:53:39;0.73;;;0.60;;
12838;SDS011;6486;51.034;5.262;2022-12-26T11:56:05;0.97;;;0.50;;
12838;SDS011;6486;51.034;5.262;2022-12-26T11:58:32;4.50;;;1.70;;
12838;SDS011;6486;51.034;5.262;2022-12-26T12:03:30;0.30;;;0.20;;
12838;SDS011;6486;51.034;5.262;2022-12-26T12:11:29;6.33;;;0.70;;
12838;SDS011;6486;51.034;5.262;2022-12-26T12:14:02;0.40;;;0.40;;
12838;SDS011;6486;51.034;5.262;2022-12-26T12:24:55;5.43;;;0.90;;
12838;SDS011;6486;51.034;5.262;2022-12-26T12:27:28;1.73;;;1.17;;
12838;SDS011;6486;51.034;5.262;2022-12-26T12:35:41;1.03;;;0.40;;
12838;SDS011;6486;51.034;5.262;2022-12-26T12:38:20;1.50;;;0.70;;
12838;SDS011;6486;51.034;5.262;2022-12-26T12:46:51;2.13;;;1.33;;
12838;SDS011;6486;51.034;5.262;2022-12-26T12:58:06;1.17;;;1.07;;
12838;SDS011;6486;51.034;5.262;2022-12-26T13:00:54;4.40;;;1.10;;
12838;SDS011;6486;51.034;5.262;2022-12-26T13:03:30;1.10;;;1.00;;
12838;SDS011;6486;51.034;5.262;2022-12-26T13:06:24;2.13;;;1.43;;
12838;SDS011;6486;51.034;5.262;2022-12-26T13:11:52;0.97;;;0.93;;
12838;SDS011;6486;51.034;5.262;2022-12-26T13:14:26;0.93;;;0.90;;
12838;SDS011;6486;51.034;5.262;2022-12-26T13:19:36;1.53;;;1.43;;
12838;SDS011;6486;51.034;5.262;2022-12-26T13:22:23;0.70;;;0.70;;
12838;SDS011;6486;51.034;5.262;2022-12-26T13:25:00;2.00;;;1.47;;
12838;SDS011;6486;51.034;5.262;2022-12-26T13:27:30;7.77;;;1.67;;
12838;SDS011;6486;51.034;5.262;2022-12-26T13:30:00;4.77;;;1.70;;
12838;SDS011;6486;51.034;5.262;2022-12-26T13:32:27;7.63;;;1.23;;
12838;SDS011;6486;51.034;5.262;2022-12-26T13:34:56;4.70;;;1.50;;
12838;SDS011;6486;51.034;5.262;2022-12-26T13:42:36;1.33;;;1.23;;
12838;SDS011;6486;51.034;5.262;2022-12-26T14:04:21;1.70;;;1.00;;
12838;SDS011;6486;51.034;5.262;2022-12-26T14:07:29;3.57;;;2.03;;
12838;SDS011;6486;51.034;5.262;2022-12-26T14:18:13;2.07;;;1.40;;
12838;SDS011;6486;51.034;5.262;2022-12-26T14:29:03;0.93;;;0.53;;
12838;SDS011;6486;51.034;5.262;2022-12-26T14:31:36;0.97;;;0.57;;
12838;SDS011;6486;51.034;5.262;2022-12-26T14:36:55;2.67;;;0.57;;
12838;SDS011;6486;51.034;5.262;2022-12-26T14:44:51;0.60;;;0.60;;
12838;SDS011;6486;51.034;5.262;2022-12-26T14:47:39;0.73;;;0.73;;
12838;SDS011;6486;51.034;5.262;2022-12-26T15:08:49;1.00;;;0.60;;
12838;SDS011;6486;51.034;5.262;2022-12-26T15:26:27;2.30;;;1.13;;
12838;SDS011;6486;51.034;5.262;2022-12-26T15:34:51;1.20;;;0.37;;
12838;SDS011;6486;51.034;5.262;2022-12-26T15:37:38;1.60;;;0.97;;
12838;SDS011;6486;51.034;5.262;2022-12-26T15:40:26;1.63;;;0.67;;
12838;SDS011;6486;51.034;5.262;2022-12-26T15:56:51;0.97;;;0.70;;
12838;SDS011;6486;51.034;5.262;2022-12-26T16:01:54;3.37;;;1.10;;
12838;SDS011;6486;51.034;5.262;2022-12-26T16:04:29;3.10;;;1.00;;
12838;SDS011;6486;51.034;5.262;2022-12-26T16:09:34;5.60;;;1.20;;
12838;SDS011;6486;51.034;5.262;2022-12-26T16:12:21;16.83;;;0.90;;
12838;SDS011;6486;51.034;5.262;2022-12-26T16:17:34;1.47;;;0.50;;
12838;SDS011;6486;51.034;5.262;2022-12-26T16:20:47;1.30;;;1.20;;
12838;SDS011;6486;51.034;5.262;2022-12-26T16:23:25;1.43;;;1.00;;
12838;SDS011;6486;51.034;5.262;2022-12-26T16:25:56;3.30;;;1.40;;
12838;SDS011;6486;51.034;5.262;2022-12-26T16:28:38;7.73;;;0.50;;
12838;SDS011;6486;51.034;5.262;2022-12-26T16:31:05;1.47;;;0.73;;
12838;SDS011;6486;51.034;5.262;2022-12-26T16:33:39;4.80;;;1.23;;
12838;SDS011;6486;51.034;5.262;2022-12-26T16:36:06;1.57;;;0.73;;
12838;SDS011;6486;51.034;5.262;2022-12-26T16:38:35;2.70;;;0.70;;
12838;SDS011;6486;51.034;5.262;2022-12-26T16:41:02;2.57;;;0.60;;
12838;SDS011;6486;51.034;5.262;2022-12-26T16:43:43;4.50;;;0.73;;
12838;SDS011;6486;51.034;5.262;2022-12-26T16:46:08;2.43;;;1.20;;
12838;SDS011;6486;51.034;5.262;2022-12-26T16:48:36;17.50;;;1.07;;
12838;SDS011;6486;51.034;5.262;2022-12-26T16:51:04;8.03;;;1.43;;
12838;SDS011;6486;51.034;5.262;2022-12-26T16:58:45;1.07;;;0.70;;
12838;SDS011;6486;51.034;5.262;2022-12-26T17:01:12;5.33;;;0.90;;
12838;SDS011;6486;51.034;5.262;2022-12-26T17:03:48;0.93;;;0.53;;
12838;SDS011;6486;51.034;5.262;2022-12-26T17:06:47;0.53;;;0.47;;
12838;SDS011;6486;51.034;5.262;2022-12-26T17:09:40;1.20;;;0.63;;
12838;SDS011;6486;51.034;5.262;2022-12-26T17:12:16;4.03;;;1.23;;
12838;SDS011;6486;51.034;5.262;2022-12-26T17:14:46;0.80;;;0.80;;
12838;SDS011;6486;51.034;5.262;2022-12-26T17:19:45;1.47;;;0.90;;
12838;SDS011;6486;51.034;5.262;2022-12-26T17:24:44;0.73;;;0.67;;
12838;SDS011;6486;51.034;5.262;2022-12-26T17:27:19;1.53;;;1.20;;
12838;SDS011;6486;51.034;5.262;2022-12-26T17:29:55;1.90;;;0.70;;
12838;SDS011;6486;51.034;5.262;2022-12-26T17:32:35;2.17;;;0.80;;
12838;SDS011;6486;51.034;5.262;2022-12-26T17:35:05;4.03;;;0.57;;
12838;SDS011;6486;51.034;5.262;2022-12-26T17:37:43;9.83;;;1.47;;
12838;SDS011;6486;51.034;5.262;2022-12-26T17:40:18;3.47;;;0.93;;
12838;SDS011;6486;51.034;5.262;2022-12-26T17:42:52;7.67;;;0.70;;
12838;SDS011;6486;51.034;5.262;2022-12-26T17:45:21;1.30;;;1.20;;
12838;SDS011;6486;51.034;5.262;2022-12-26T17:47:51;0.80;;;0.80;;
12838;SDS011;6486;51.034;5.262;2022-12-26T17:50:18;1.17;;;0.60;;
12838;SDS011;6486;51.034;5.262;2022-12-26T17:52:44;0.57;;;0.33;;
12838;SDS011;6486;51.034;5.262;2022-12-26T17:55:21;10.73;;;1.30;;
12838;SDS011;6486;51.034;5.262;2022-12-26T17:57:50;2.47;;;0.70;;
12838;SDS011;6486;51.034;5.262;2022-12-26T18:00:18;2.50;;;0.67;;
12838;SDS011;6486;51.034;5.262;2022-12-26T18:02:46;1.17;;;1.00;;
12838;SDS011;6486;51.034;5.262;2022-12-26T18:05:11;1.37;;;0.80;;
12838;SDS011;6486;51.034;5.262;2022-12-26T18:07:37;0.97;;;0.80;;
12838;SDS011;6486;51.034;5.262;2022-12-26T18:10:04;3.50;;;1.03;;
12838;SDS011;6486;51.034;5.262;2022-12-26T18:12:30;2.67;;;1.20;;
12838;SDS011;6486;51.034;5.262;2022-12-26T18:14:56;2.17;;;1.10;;
12838;SDS011;6486;51.034;5.262;2022-12-26T18:17:21;0.83;;;0.83;;
12838;SDS011;6486;51.034;5.262;2022-12-26T18:19:47;3.10;;;1.10;;
12838;SDS011;6486;51.034;5.262;2022-12-26T18:22:15;1.90;;;0.80;;
12838;SDS011;6486;51.034;5.262;2022-12-26T18:24:41;0.57;;;0.57;;
12838;SDS011;6486;51.034;5.262;2022-12-26T18:27:17;1.07;;;0.97;;
12838;SDS011;6486;51.034;5.262;2022-12-26T18:30:03;19.30;;;1.83;;
12838;SDS011;6486;51.034;5.262;2022-12-26T18:32:31;2.30;;;1.40;;
12838;SDS011;6486;51.034;5.262;2022-12-26T18:34:58;3.33;;;2.13;;
12838;SDS011;6486;51.034;5.262;2022-12-26T18:37:25;6.07;;;1.60;;
12838;SDS011;6486;51.034;5.262;2022-12-26T18:39:53;1.03;;;0.93;;
12838;SDS011;6486;51.034;5.262;2022-12-26T18:42:20;4.57;;;0.83;;
12838;SDS011;6486;51.034;5.262;2022-12-26T18:44:46;1.30;;;1.20;;
12838;SDS011;6486;51.034;5.262;2022-12-26T18:47:12;1.10;;;0.60;;
12838;SDS011;6486;51.034;5.262;2022-12-26T18:49:39;1.70;;;1.10;;
12838;SDS011;6486;51.034;5.262;2022-12-26T18:52:06;3.00;;;1.40;;
12838;SDS011;6486;51.034;5.262;2022-12-26T18:54:31;2.43;;;0.80;;
12838;SDS011;6486;51.034;5.262;2022-12-26T18:56:57;2.17;;;0.93;;
12838;SDS011;6486;51.034;5.262;2022-12-26T18:59:23;4.27;;;1.30;;
12838;SDS011;6486;51.034;5.262;2022-12-26T19:01:49;5.37;;;0.87;;
12838;SDS011;6486;51.034;5.262;2022-12-26T19:04:15;5.03;;;1.37;;
12838;SDS011;6486;51.034;5.262;2022-12-26T19:06:41;1.23;;;0.93;;
12838;SDS011;6486;51.034;5.262;2022-12-26T19:09:10;6.07;;;0.90;;
12838;SDS011;6486;51.034;5.262;2022-12-26T19:11:37;1.07;;;0.90;;
12838;SDS011;6486;51.034;5.262;2022-12-26T19:14:03;1.30;;;1.20;;
12838;SDS011;6486;51.034;5.262;2022-12-26T19:16:34;0.90;;;0.90;;
12838;SDS011;6486;51.034;5.262;2022-12-26T19:19:02;0.90;;;0.90;;
12838;SDS011;6486;51.034;5.262;2022-12-26T19:21:28;1.87;;;1.17;;
12838;SDS011;6486;51.034;5.262;2022-12-26T19:23:53;0.90;;;0.70;;